Time;durP1;ratioP1;P1;durP2;ratioP2;P2;SDS_P1;SDS_P2;PMS_P1;PMS_P2;Temp;Humidity;BMP_temperature;BMP_pressure;BME280_temperature;BME280_humidity;BME280_pressure;Samples;Min_cycle;Max_cycle;Signal;HPM_P1;HPM_P2
2021/11/21 00:01:33;;;;;;;0.00;0.00;;;;;;;8.59;71.71;99291.78;5072806;28;20028;-75
2021/11/21 00:03:59;;;;;;;0.50;0.50;;;;;;;8.45;71.50;99279.91;5072769;28;20564;-76
2021/11/21 00:06:25;;;;;;;0.00;0.00;;;;;;;8.51;71.27;99289.59;5072172;28;20024;-77
2021/11/21 00:08:51;;;;;;;0.00;0.00;;;;;;;8.48;71.51;99290.91;5073079;28;20119;-77
2021/11/21 00:11:17;;;;;;;0.00;0.00;;;;;;;8.39;71.27;99280.94;5072809;28;20036;-77
2021/11/21 00:13:43;;;;;;;0.00;0.00;;;;;;;8.43;71.14;99301.47;5072774;28;20028;-78
2021/11/21 00:16:08;;;;;;;0.00;0.00;;;;;;;8.30;71.54;99288.56;5072800;28;20042;-77
2021/11/21 00:18:34;;;;;;;0.00;0.00;;;;;;;8.27;71.02;99287.22;5090126;28;20471;-73
2021/11/21 00:21:00;;;;;;;0.15;0.15;;;;;;;8.27;71.01;99291.75;5091064;28;20466;-75
2021/11/21 00:23:25;;;;;;;0.00;0.00;;;;;;;8.18;70.98;99291.44;5090226;28;20031;-74
2021/11/21 00:25:51;;;;;;;0.13;0.13;;;;;;;8.14;71.52;99306.31;5072507;28;20406;-76
2021/11/21 00:28:17;;;;;;;0.00;0.00;;;;;;;8.06;71.00;99304.91;5072579;28;20403;-75
2021/11/21 00:30:42;;;;;;;0.00;0.00;;;;;;;8.01;71.15;99300.34;5090796;28;20467;-75
2021/11/21 00:33:08;;;;;;;0.00;0.00;;;;;;;7.86;71.11;99284.22;5091008;28;20035;-74
2021/11/21 00:35:34;;;;;;;0.00;0.00;;;;;;;7.74;70.68;99287.03;5090642;28;20024;-73
2021/11/21 00:37:59;;;;;;;0.00;0.00;;;;;;;7.70;70.68;99304.56;5072459;28;20047;-73
2021/11/21 00:40:25;;;;;;;0.00;0.00;;;;;;;7.64;70.55;99308.22;5072534;28;20028;-75
2021/11/21 00:42:51;;;;;;;0.00;0.00;;;;;;;7.52;71.18;99298.53;5072470;28;20028;-75
2021/11/21 00:45:17;;;;;;;0.00;0.00;;;;;;;7.39;71.23;99293.56;5072719;28;20020;-76
2021/11/21 00:47:43;;;;;;;0.00;0.00;;;;;;;7.39;71.05;99306.09;5090045;28;20406;-75
2021/11/21 00:50:12;;;;;;;0.00;0.00;;;;;;;7.33;71.23;99295.38;5072614;28;20020;-77
2021/11/21 00:52:38;;;;;;;;;;;;;;;7.32;71.36;99299.09;5072473;28;20160;-76
2021/11/21 00:55:18;;;;;;;0.00;0.00;;;;;;;7.28;71.31;99297.19;5072778;28;19955;-77
2021/11/21 00:57:44;;;;;;;0.00;0.00;;;;;;;7.18;71.34;99298.66;5071876;28;20039;-77
2021/11/21 01:00:12;;;;;;;0.00;0.00;;;;;;;7.17;71.66;99299.69;5072715;28;20059;-76
2021/11/21 01:02:39;;;;;;;0.00;0.00;;;;;;;7.04;72.32;99278.78;5072499;28;20020;-77
2021/11/21 01:05:07;;;;;;;0.00;0.00;;;;;;;7.05;72.14;99288.38;5072316;28;20105;-77
2021/11/21 01:07:36;;;;;;;0.00;0.00;;;;;;;7.08;72.70;99287.91;5072145;28;20123;-81
2021/11/21 01:10:08;;;;;;;0.00;0.00;;;;;;;6.98;72.72;99283.25;5072351;28;20044;-80
2021/11/21 01:12:34;;;;;;;0.00;0.00;;;;;;;7.03;72.43;99290.47;5071646;28;20044;-80
2021/11/21 01:15:00;;;;;;;0.00;0.00;;;;;;;7.02;72.90;99287.00;5072577;28;20034;-75
2021/11/21 01:17:25;;;;;;;0.00;0.00;;;;;;;6.97;72.55;99283.47;5072039;28;20024;-77
2021/11/21 01:19:51;;;;;;;0.00;0.00;;;;;;;6.96;72.88;99284.56;5072612;28;20402;-77
2021/11/21 01:22:16;;;;;;;0.00;0.00;;;;;;;6.97;72.65;99291.47;5091010;28;20426;-77
2021/11/21 01:24:42;;;;;;;0.00;0.00;;;;;;;6.96;72.99;99282.69;5071907;28;20036;-78
2021/11/21 01:27:07;;;;;;;0.00;0.00;;;;;;;6.87;73.23;99276.16;5072496;28;20032;-78
2021/11/21 01:29:33;;;;;;;0.00;0.00;;;;;;;6.82;73.59;99268.97;5075548;28;20394;-76
2021/11/21 01:32:00;;;;;;;0.00;0.00;;;;;;;6.82;73.15;99282.25;5094208;28;20031;-74
2021/11/21 01:34:26;;;;;;;0.00;0.00;;;;;;;6.77;73.31;99268.88;5075226;28;20086;-76
2021/11/21 01:36:51;;;;;;;0.00;0.00;;;;;;;6.82;73.38;99273.44;5075793;28;20035;-74
2021/11/21 01:39:16;;;;;;;0.00;0.00;;;;;;;6.79;73.65;99281.94;5075511;28;20036;-76
2021/11/21 01:41:42;;;;;;;0.00;0.00;;;;;;;6.73;73.58;99273.88;5093442;28;20035;-74
2021/11/21 01:44:11;;;;;;;0.00;0.00;;;;;;;6.72;74.29;99276.78;5093591;28;20546;-76
2021/11/21 01:46:38;;;;;;;0.00;0.00;;;;;;;6.66;74.20;99267.91;5075421;28;20032;-75
2021/11/21 01:49:05;;;;;;;0.28;0.28;;;;;;;6.53;74.83;99255.78;5075312;28;20028;-74
2021/11/21 01:51:31;;;;;;;0.00;0.00;;;;;;;6.56;75.08;99271.22;5075234;28;20036;-74
2021/11/21 01:53:57;;;;;;;0.00;0.00;;;;;;;6.47;75.03;99264.75;5075153;28;20063;-75
2021/11/21 01:56:26;;;;;;;0.00;0.00;;;;;;;6.57;74.78;99286.13;5075330;28;20034;-75
2021/11/21 01:58:52;;;;;;;;;;;;;;;6.54;75.45;99283.16;5075636;28;20114;-77
2021/11/21 02:01:17;;;;;;;0.00;0.00;;;;;;;6.48;75.06;99278.81;5075318;28;19912;-77
2021/11/21 02:03:43;;;;;;;0.30;0.30;;;;;;;6.49;74.87;99285.75;5074805;28;20044;-76
2021/11/21 02:06:08;;;;;;;0.00;0.00;;;;;;;6.47;74.81;99280.69;5074723;28;20035;-75
2021/11/21 02:08:34;;;;;;;0.00;0.00;;;;;;;6.37;74.39;99261.91;5093432;28;20387;-75
2021/11/21 02:11:00;;;;;;;0.22;0.22;;;;;;;6.38;74.15;99271.50;5074962;28;20071;-75
2021/11/21 02:13:25;;;;;;;0.00;0.00;;;;;;;6.31;74.53;99268.19;5093001;28;20032;-74
2021/11/21 02:15:51;;;;;;;0.00;0.00;;;;;;;6.28;74.51;99250.91;5092946;28;20032;-74
2021/11/21 02:18:16;;;;;;;0.00;0.00;;;;;;;6.23;74.06;99246.31;5074723;28;20507;-74
2021/11/21 02:20:43;;;;;;;0.00;0.00;;;;;;;6.28;74.52;99258.88;5093245;28;20028;-77
2021/11/21 02:23:09;;;;;;;0.00;0.00;;;;;;;6.27;74.68;99251.16;5075008;28;20024;-78
2021/11/21 02:25:36;;;;;;;0.00;0.00;;;;;;;6.26;74.89;99250.31;5074173;28;20498;-77
2021/11/21 02:28:03;;;;;;;0.00;0.00;;;;;;;6.27;75.41;99251.16;5093000;28;20053;-79
2021/11/21 02:30:28;;;;;;;0.00;0.00;;;;;;;6.23;75.67;99248.97;5074686;28;20110;-79
2021/11/21 02:32:55;;;;;;;0.00;0.00;;;;;;;6.25;75.38;99246.88;5074479;28;20028;-79
2021/11/21 02:35:22;;;;;;;0.00;0.00;;;;;;;6.22;75.82;99251.88;5074331;28;20024;-78
2021/11/21 02:37:48;;;;;;;0.00;0.00;;;;;;;6.20;75.34;99248.63;5074506;28;20131;-78
2021/11/21 02:40:15;;;;;;;0.00;0.00;;;;;;;6.25;75.26;99246.09;5073874;28;20586;-74
2021/11/21 02:42:40;;;;;;;0.00;0.00;;;;;;;6.21;75.89;99255.56;5074266;28;20035;-78
2021/11/21 02:45:18;;;;;;;0.00;0.00;;;;;;;6.22;76.19;99251.88;5074468;28;20406;-80
2021/11/21 02:47:45;;;;;;;0.00;0.00;;;;;;;6.21;76.06;99251.06;5073960;28;20053;-80
2021/11/21 02:50:14;;;;;;;0.00;0.00;;;;;;;6.21;76.01;99247.59;5074422;28;20028;-80
2021/11/21 02:52:39;;;;;;;0.00;0.00;;;;;;;6.21;76.19;99239.63;5073867;28;20032;-78
2021/11/21 02:55:06;;;;;;;0.00;0.00;;;;;;;6.21;75.94;99245.75;5073915;28;20028;-77
2021/11/21 02:57:31;;;;;;;0.00;0.00;;;;;;;6.27;76.31;99245.84;5073701;28;20024;-74
2021/11/21 02:59:57;;;;;;;0.00;0.00;;;;;;;6.17;75.91;99230.56;5074198;28;20038;-73
2021/11/21 03:02:22;;;;;;;0.10;0.10;;;;;;;6.24;76.50;99244.47;5091619;28;20069;-73
2021/11/21 03:04:50;;;;;;;0.47;0.47;;;;;;;6.25;76.17;99238.91;5091604;28;20048;-76
2021/11/21 03:07:17;;;;;;;0.00;0.00;;;;;;;6.22;76.62;99227.97;5074066;28;20036;-74
2021/11/21 03:09:43;;;;;;;0.00;0.00;;;;;;;6.15;76.02;99214.03;5073645;28;20024;-72
2021/11/21 03:12:08;;;;;;;0.00;0.00;;;;;;;6.24;76.27;99231.19;5091778;28;20051;-76
2021/11/21 03:14:34;;;;;;;0.00;0.00;;;;;;;6.22;76.49;99231.41;5092097;28;20478;-75
2021/11/21 03:17:00;;;;;;;0.00;0.00;;;;;;;6.20;76.71;99230.88;5091120;28;20060;-75
2021/11/21 03:19:27;;;;;;;0.00;0.00;;;;;;;6.23;76.60;99234.88;5091822;28;20024;-76
2021/11/21 03:21:53;;;;;;;0.00;0.00;;;;;;;6.21;76.47;99229.00;5073917;28;20027;-77
2021/11/21 03:24:18;;;;;;;0.00;0.00;;;;;;;6.22;76.57;99246.56;5073723;28;20032;-75
2021/11/21 03:26:44;;;;;;;0.00;0.00;;;;;;;6.11;76.75;99223.56;5073206;28;20028;-76
2021/11/21 03:29:10;;;;;;;0.00;0.00;;;;;;;6.14;76.37;99237.16;5073557;28;20077;-76
2021/11/21 03:31:36;;;;;;;0.00;0.00;;;;;;;6.16;76.55;99247.53;5091560;28;20024;-76
2021/11/21 03:34:03;;;;;;;0.00;0.00;;;;;;;6.13;76.19;99251.47;5073360;28;20034;-74
2021/11/21 03:36:30;;;;;;;0.00;0.00;;;;;;;6.12;76.58;99241.09;5091072;28;20031;-75
2021/11/21 03:38:56;;;;;;;0.10;0.10;;;;;;;6.04;76.47;99229.00;5091480;28;20035;-76
2021/11/21 03:41:21;;;;;;;0.00;0.00;;;;;;;5.99;77.12;99224.41;5091327;28;20112;-76
2021/11/21 03:43:47;;;;;;;0.00;0.00;;;;;;;5.97;76.76;99221.19;5072956;28;20398;-76
2021/11/21 03:46:13;;;;;;;0.00;0.00;;;;;;;6.06;77.02;99237.53;5072754;28;20024;-74
2021/11/21 03:48:38;;;;;;;0.00;0.00;;;;;;;5.87;76.95;99205.91;5091276;28;20024;-75
2021/11/21 03:51:04;;;;;;;0.00;0.00;;;;;;;6.00;76.12;99222.59;5090896;28;20024;-75
2021/11/21 03:53:29;;;;;;;0.00;0.00;;;;;;;5.94;76.61;99224.31;5091165;28;20024;-74
2021/11/21 03:55:55;;;;;;;0.00;0.00;;;;;;;5.92;76.49;99226.41;5091062;28;20063;-74
2021/11/21 03:58:21;;;;;;;0.00;0.00;;;;;;;5.95;76.56;99228.56;5091253;28;20028;-75
2021/11/21 04:00:46;;;;;;;0.00;0.00;;;;;;;5.87;76.66;99215.69;5090883;28;20479;-75
2021/11/21 04:03:13;;;;;;;0.00;0.00;;;;;;;5.93;76.69;99231.47;5090750;28;20048;-76
2021/11/21 04:05:39;;;;;;;0.00;0.00;;;;;;;5.91;76.98;99230.91;5072626;28;20126;-76
2021/11/21 04:08:04;;;;;;;0.00;0.00;;;;;;;5.82;77.05;99219.06;5073067;28;20069;-77
2021/11/21 04:10:30;;;;;;;0.00;0.00;;;;;;;5.89;77.12;99227.69;5072780;28;20035;-77
2021/11/21 04:12:56;;;;;;;0.00;0.00;;;;;;;5.84;77.13;99216.19;5073125;28;20024;-82
2021/11/21 04:15:22;;;;;;;0.10;0.10;;;;;;;5.90;77.48;99231.94;5091141;28;20059;-82
2021/11/21 04:17:47;;;;;;;0.00;0.00;;;;;;;5.93;77.40;99231.47;5072537;28;20115;-78
2021/11/21 04:20:13;;;;;;;0.00;0.00;;;;;;;5.93;77.07;99238.63;5073017;28;20063;-78
2021/11/21 04:22:39;;;;;;;0.00;0.00;;;;;;;5.81;77.19;99214.00;5072506;28;20047;-80
2021/11/21 04:25:05;;;;;;;0.00;0.00;;;;;;;5.90;77.02;99231.16;5072637;28;20032;-83
2021/11/21 04:27:31;;;;;;;0.00;0.00;;;;;;;5.90;77.21;99241.78;5072245;28;20096;-75
2021/11/21 04:29:57;;;;;;;0.00;0.00;;;;;;;5.75;77.16;99229.06;5072885;28;20433;-74
2021/11/21 04:32:24;;;;;;;0.05;0.05;;;;;;;5.81;77.36;99246.69;5091273;28;20084;-76
2021/11/21 04:34:50;;;;;;;0.00;0.00;;;;;;;5.74;76.88;99241.50;5072519;28;20059;-76
2021/11/21 04:37:16;;;;;;;0.00;0.00;;;;;;;5.77;76.71;99241.03;5090314;28;20028;-74
2021/11/21 04:39:41;;;;;;;0.00;0.00;;;;;;;5.71;76.84;99252.63;5090877;28;20028;-75
2021/11/21 04:42:07;;;;;;;0.10;0.10;;;;;;;5.70;77.08;99251.00;5072720;28;20035;-73
2021/11/21 04:44:32;;;;;;;0.00;0.00;;;;;;;5.65;76.78;99256.22;5090786;28;20088;-75
2021/11/21 04:46:58;;;;;;;0.00;0.00;;;;;;;5.61;76.38;99247.09;5072324;28;20063;-75
2021/11/21 04:49:24;;;;;;;0.00;0.00;;;;;;;5.58;76.35;99250.25;5072695;28;20478;-80
2021/11/21 04:51:49;;;;;;;0.00;0.00;;;;;;;5.56;76.17;99249.69;5072975;28;20105;-79
2021/11/21 04:54:17;;;;;;;0.00;0.00;;;;;;;5.55;76.29;99250.72;5072828;28;20020;-75
2021/11/21 04:56:46;;;;;;;0.63;0.63;;;;;;;5.52;76.09;99253.84;5073185;28;20470;-78
2021/11/21 04:59:13;;;;;;;0.00;0.00;;;;;;;5.47;76.42;99243.94;5072760;28;20020;-73
2021/11/21 05:01:39;;;;;;;0.00;0.00;;;;;;;5.41;76.85;99237.75;5071512;28;20502;-74
2021/11/21 05:04:05;;;;;;;0.00;0.00;;;;;;;5.48;77.21;99245.56;5075335;28;20090;-85
2021/11/21 05:06:31;;;;;;;0.00;0.00;;;;;;;5.41;77.89;99242.25;5076285;28;20064;-78
2021/11/21 05:08:56;;;;;;;0.75;0.75;;;;;;;5.40;78.21;99243.28;5075948;28;20494;-73
2021/11/21 05:11:22;;;;;;;0.00;0.00;;;;;;;5.39;78.21;99239.03;5094269;28;20414;-75
2021/11/21 05:13:47;;;;;;;0.00;0.00;;;;;;;5.37;78.27;99238.44;5094235;28;20478;-72
2021/11/21 05:16:13;;;;;;;0.00;0.00;;;;;;;5.36;78.19;99242.13;5075656;28;20024;-74
2021/11/21 05:18:38;;;;;;;0.00;0.00;;;;;;;5.41;79.11;99242.25;5093617;28;20032;-75
2021/11/21 05:21:04;;;;;;;0.00;0.00;;;;;;;5.41;78.87;99244.91;5094520;28;20103;-76
2021/11/21 05:23:29;;;;;;;0.00;0.00;;;;;;;5.42;79.08;99241.19;5076127;28;20032;-76
2021/11/21 05:25:55;;;;;;;0.40;0.40;;;;;;;5.44;79.40;99239.09;5093980;28;20024;-76
2021/11/21 05:28:20;;;;;;;0.00;0.00;;;;;;;5.44;78.75;99236.44;5094244;28;20031;-76
2021/11/21 05:30:48;;;;;;;0.00;0.00;;;;;;;5.51;78.27;99242.44;5075467;28;20043;-75
2021/11/21 05:33:15;;;;;;;0.00;0.00;;;;;;;5.54;79.06;99249.91;5075596;28;20081;-76
2021/11/21 05:35:41;;;;;;;0.00;0.00;;;;;;;5.56;79.23;99241.72;5093435;28;20032;-76
2021/11/21 05:38:06;;;;;;;0.00;0.00;;;;;;;5.66;78.97;99244.53;5075423;28;20028;-76
2021/11/21 05:40:32;;;;;;;0.00;0.00;;;;;;;5.68;78.55;99241.66;5075306;28;20544;-77
2021/11/21 05:42:57;;;;;;;0.50;0.50;;;;;;;5.82;78.82;99248.25;5075409;28;20089;-75
2021/11/21 05:45:23;;;;;;;0.00;0.00;;;;;;;5.78;78.77;99228.56;5093747;28;20027;-72
2021/11/21 05:47:49;;;;;;;0.00;0.00;;;;;;;5.95;77.69;99257.78;5092879;28;20105;-73
2021/11/21 05:50:16;;;;;;;0.00;0.00;;;;;;;5.97;77.76;99245.09;5074787;28;20036;-75
2021/11/21 05:52:45;;;;;;;0.00;0.00;;;;;;;6.15;77.18;99267.16;5093127;28;20034;-76
2021/11/21 05:55:12;;;;;;;0.00;0.00;;;;;;;6.16;75.03;99266.91;5075212;28;20046;-77
2021/11/21 05:57:38;;;;;;;0.52;0.52;;;;;;;6.17;74.50;99268.53;5075176;28;20032;-76
2021/11/21 06:00:07;;;;;;;0.00;0.00;;;;;;;6.12;74.78;99243.75;5093058;28;20107;-74
2021/11/21 06:02:33;;;;;;;0.00;0.00;;;;;;;6.26;74.80;99263.59;5084316;28;20119;-74
2021/11/21 06:04:58;;;;;;;0.00;0.00;;;;;;;6.30;74.03;99250.66;5074682;28;20047;-74
2021/11/21 06:07:24;;;;;;;0.00;0.00;;;;;;;6.43;73.70;99263.59;5093014;28;20024;-74
2021/11/21 06:09:49;;;;;;;0.22;0.22;;;;;;;6.48;73.60;99269.00;5074494;28;20396;-76
2021/11/21 06:12:15;;;;;;;0.00;0.00;;;;;;;6.36;73.22;99237.22;5091800;28;20027;-75
2021/11/21 06:14:40;;;;;;;0.00;0.00;;;;;;;6.53;73.43;99247.81;5072318;28;20031;-74
2021/11/21 06:17:07;;;;;;;0.00;0.00;;;;;;;6.61;73.22;99246.59;5092139;28;20032;-75
2021/11/21 06:19:32;;;;;;;0.00;0.00;;;;;;;6.77;73.17;99263.56;5073753;28;20032;-73
2021/11/21 06:21:58;;;;;;;0.00;0.00;;;;;;;6.87;72.61;99254.91;5065811;28;20077;-76
2021/11/21 06:24:23;;;;;;;0.00;0.00;;;;;;;6.86;72.50;99247.97;5069110;28;20039;-77
2021/11/21 06:26:49;;;;;;;0.40;0.40;;;;;;;7.04;72.70;99263.66;5071498;28;20039;-81
2021/11/21 06:29:14;;;;;;;0.10;0.10;;;;;;;7.16;72.83;99255.53;5072433;28;20031;-77
2021/11/21 06:31:40;;;;;;;0.20;0.20;;;;;;;7.12;72.65;99230.50;5068780;28;20032;-75
2021/11/21 06:34:05;;;;;;;0.00;0.00;;;;;;;7.35;71.69;99249.91;5066871;28;20109;-78
2021/11/21 06:36:31;;;;;;;0.00;0.00;;;;;;;7.41;71.16;99237.44;5060799;28;20082;-79
2021/11/21 06:38:57;;;;;;;0.00;0.00;;;;;;;7.57;71.55;99254.38;5054679;28;20448;-75
2021/11/21 06:41:22;;;;;;;0.08;0.08;;;;;;;7.66;71.28;99247.56;5054424;28;20124;-75
2021/11/21 06:43:48;;;;;;;0.00;0.00;;;;;;;7.73;70.23;99248.16;5073901;28;20032;-76
2021/11/21 06:46:15;;;;;;;0.10;0.10;;;;;;;7.80;70.07;99255.94;5073394;28;20062;-76
2021/11/21 06:48:41;;;;;;;0.00;0.00;;;;;;;7.89;69.74;99256.28;5081572;28;20465;-80
2021/11/21 06:51:07;;;;;;;0.00;0.00;;;;;;;7.92;69.49;99253.13;5055514;28;20123;-80
2021/11/21 06:53:33;;;;;;;0.00;0.00;;;;;;;7.92;69.74;99253.13;5070286;28;20031;-76
2021/11/21 06:55:59;;;;;;;0.30;0.30;;;;;;;7.98;70.17;99250.25;5070471;28;20040;-74
2021/11/21 06:58:27;;;;;;;0.00;0.00;;;;;;;8.05;70.06;99258.03;5091772;28;20111;-75
2021/11/21 07:00:53;;;;;;;0.15;0.15;;;;;;;8.17;70.18;99253.31;5070598;28;20024;-76
2021/11/21 07:03:18;;;;;;;0.00;0.00;;;;;;;8.27;69.65;99263.25;5061034;28;20055;-75
2021/11/21 07:05:44;;;;;;;0.20;0.20;;;;;;;8.38;69.74;99252.69;5088877;28;20407;-74
2021/11/21 07:08:09;;;;;;;0.00;0.00;;;;;;;8.49;69.91;99249.88;5078229;28;20174;-76
2021/11/21 07:10:35;;;;;;;0.15;0.15;;;;;;;8.54;68.88;99240.28;5072932;28;20415;-76
2021/11/21 07:13:02;;;;;;;0.22;0.22;;;;;;;8.65;68.99;99242.75;5053541;28;20033;-76
2021/11/21 07:15:28;;;;;;;0.00;0.00;;;;;;;8.72;69.29;99239.06;5067096;28;20031;-76
2021/11/21 07:17:54;;;;;;;0.20;0.20;;;;;;;8.85;69.69;99241.25;5069949;28;20089;-76
2021/11/21 07:20:20;;;;;;;0.00;0.00;;;;;;;8.93;68.44;99237.28;5068676;28;20043;-75
2021/11/21 07:22:48;;;;;;;0.00;0.00;;;;;;;9.03;68.67;99247.97;5090719;28;20048;-76
2021/11/21 07:25:16;;;;;;;0.70;0.47;;;;;;;9.09;68.42;99238.16;5059984;28;20124;-76
2021/11/21 07:27:42;;;;;;;0.00;0.00;;;;;;;9.17;68.47;99239.50;5073064;28;20567;-79
2021/11/21 07:30:09;;;;;;;0.05;0.05;;;;;;;9.24;68.33;99242.72;5073156;28;20020;-79
2021/11/21 07:32:34;;;;;;;0.00;0.00;;;;;;;9.34;68.20;99244.63;5071128;28;20043;-77
2021/11/21 07:34:59;;;;;;;0.10;0.10;;;;;;;9.37;68.34;99238.78;5054690;28;20036;-79
2021/11/21 07:37:25;;;;;;;0.00;0.00;;;;;;;9.43;67.53;99235.84;5057696;28;20020;-79
2021/11/21 07:39:50;;;;;;;0.10;0.10;;;;;;;9.45;67.32;99228.38;5072912;28;20068;-76
2021/11/21 07:42:16;;;;;;;0.00;0.00;;;;;;;9.49;67.03;99236.66;5071492;28;20509;-75
2021/11/21 07:44:41;;;;;;;0.00;0.00;;;;;;;9.49;66.52;99228.66;5078955;28;20032;-75
2021/11/21 07:47:07;;;;;;;0.22;0.22;;;;;;;9.58;66.76;99234.28;5083291;28;20075;-77
2021/11/21 07:49:32;;;;;;;0.82;0.80;;;;;;;9.64;66.93;99230.53;5060698;28;20027;-77
2021/11/21 07:51:58;;;;;;;0.10;0.10;;;;;;;9.71;67.09;99228.41;5072133;28;20036;-76
2021/11/21 07:54:23;;;;;;;0.20;0.20;;;;;;;9.78;67.02;99220.94;5072484;28;20028;-78
2021/11/21 07:56:49;;;;;;;0.08;0.08;;;;;;;9.85;66.92;99219.88;5072472;28;20027;-76
2021/11/21 07:59:14;;;;;;;0.00;0.00;;;;;;;9.88;67.46;99216.69;5071504;28;20470;-78
2021/11/21 08:01:40;;;;;;;0.20;0.20;;;;;;;9.89;67.33;99212.94;5070630;28;20091;-76
2021/11/21 08:04:06;;;;;;;0.35;0.35;;;;;;;9.95;67.48;99211.88;5068479;28;20094;-77
2021/11/21 08:06:32;;;;;;;1.10;0.93;;;;;;;10.03;67.83;99216.69;5072874;28;20510;-80
2021/11/21 08:08:57;;;;;;;0.98;0.85;;;;;;;10.02;67.56;99207.06;5072094;28;20414;-75
2021/11/21 08:11:23;;;;;;;1.00;0.85;;;;;;;10.04;67.78;99201.47;5072424;28;20039;-78
2021/11/21 08:13:48;;;;;;;0.70;0.70;;;;;;;10.09;67.85;99207.59;5072154;28;20043;-79
2021/11/21 08:16:14;;;;;;;1.17;0.65;;;;;;;10.15;67.49;99205.72;5072329;28;20056;-76
2021/11/21 08:18:39;;;;;;;0.13;0.13;;;;;;;10.18;67.57;99207.84;5072758;28;20027;-76
2021/11/21 08:21:05;;;;;;;0.30;0.30;;;;;;;10.22;67.67;99211.59;5069992;28;20028;-86
2021/11/21 08:23:30;;;;;;;0.30;0.30;;;;;;;10.27;67.38;99205.44;5078412;28;20024;-76
2021/11/21 08:25:56;;;;;;;0.00;0.00;;;;;;;10.29;67.34;99205.16;5072282;28;20031;-84
2021/11/21 08:28:22;;;;;;;0.10;0.10;;;;;;;10.32;67.54;99199.28;5072629;28;20020;-80
2021/11/21 08:30:47;;;;;;;0.10;0.10;;;;;;;10.36;67.40;99195.84;5090183;28;20028;-81
2021/11/21 08:33:13;;;;;;;0.10;0.10;;;;;;;10.35;67.14;99182.69;5072432;28;20016;-81
2021/11/21 08:35:40;;;;;;;0.13;0.13;;;;;;;10.51;67.02;99192.31;5072320;28;20046;-82
2021/11/21 08:38:07;;;;;;;0.10;0.10;;;;;;;10.55;67.01;99176.53;5075930;28;20028;-83
2021/11/21 08:40:33;;;;;;;0.25;0.25;;;;;;;10.57;66.68;99174.41;5077141;28;20060;-77
2021/11/21 08:43:00;;;;;;;0.00;0.00;;;;;;;10.59;66.86;99168.78;5092991;28;20109;-77
2021/11/21 08:45:27;;;;;;;0.08;0.08;;;;;;;10.67;66.72;99174.34;5077702;28;20177;-77
2021/11/21 08:47:54;;;;;;;0.00;0.00;;;;;;;10.69;66.12;99156.16;5063844;28;20445;-78
2021/11/21 08:50:20;;;;;;;0.32;0.32;;;;;;;10.83;66.09;99164.38;5062224;28;20031;-82
2021/11/21 08:52:46;;;;;;;0.00;0.00;;;;;;;10.92;65.00;99161.94;5072552;28;20032;-93
2021/11/21 08:55:13;;;;;;;0.40;0.40;;;;;;;10.98;64.41;99163.50;5064821;28;20032;-81
2021/11/21 08:57:39;;;;;;;1.25;1.08;;;;;;;11.04;64.21;99164.28;5069965;28;20115;-86
2021/11/21 09:00:07;;;;;;;0.05;0.05;;;;;;;11.13;64.22;99157.28;5076152;28;20546;-80
2021/11/21 09:02:34;;;;;;;0.22;0.22;;;;;;;11.17;64.17;99150.28;5071259;28;20023;-77
2021/11/21 09:04:59;;;;;;;0.17;0.17;;;;;;;11.27;63.78;99145.97;5074570;28;20559;-85
2021/11/21 09:07:25;;;;;;;0.10;0.10;;;;;;;11.35;63.78;99146.16;5074851;28;20059;-93
2021/11/21 09:09:51;;;;;;;3.03;1.38;;;;;;;11.38;63.56;99140.25;5080304;28;20406;-86
2021/11/21 09:12:17;;;;;;;0.47;0.47;;;;;;;11.43;63.26;99135.94;5075375;28;20398;-87
2021/11/21 09:14:43;;;;;;;0.55;0.43;;;;;;;11.49;62.85;99134.81;5064399;28;20028;-84
2021/11/21 09:17:09;;;;;;;0.10;0.10;;;;;;;11.56;63.13;99138.00;5075933;28;20124;-80
2021/11/21 09:19:34;;;;;;;0.00;0.00;;;;;;;11.58;62.84;99132.34;5067514;28;20040;-85
2021/11/21 09:22:00;;;;;;;0.20;0.20;;;;;;;11.58;62.51;99113.59;5070527;28;20028;-83
2021/11/21 09:24:26;;;;;;;0.28;0.28;;;;;;;11.65;62.33;99109.50;5077451;28;20032;-86
2021/11/21 09:26:51;;;;;;;0.15;0.15;;;;;;;11.73;62.68;99110.78;5066387;28;20578;-81
2021/11/21 09:29:17;;;;;;;0.50;0.50;;;;;;;11.78;63.21;99105.38;5065792;28;20123;-81
2021/11/21 09:31:42;;;;;;;0.10;0.10;;;;;;;11.82;61.36;99108.28;5074645;28;20093;-75
2021/11/21 09:34:08;;;;;;;0.68;0.68;;;;;;;11.88;62.50;99099.13;5093469;28;20024;-80
2021/11/21 09:36:34;;;;;;;0.10;0.10;;;;;;;11.92;61.97;99094.78;5081864;28;20572;-81
2021/11/21 09:39:00;;;;;;;0.00;0.00;;;;;;;11.99;62.03;99092.59;5056947;28;20040;-82
2021/11/21 09:41:25;;;;;;;0.65;0.65;;;;;;;12.01;61.53;99092.31;5070861;28;20032;-81
2021/11/21 09:43:51;;;;;;;0.17;0.17;;;;;;;12.09;62.28;99080.19;5061394;28;20116;-80
2021/11/21 09:46:18;;;;;;;0.45;0.45;;;;;;;12.12;61.97;99071.56;5070757;28;20455;-79
2021/11/21 09:48:43;;;;;;;0.00;0.00;;;;;;;12.09;61.79;99051.50;5061383;28;20033;-79
2021/11/21 09:51:09;;;;;;;0.32;0.32;;;;;;;12.28;62.24;99062.28;5071543;28;20048;-80
2021/11/21 09:53:34;;;;;;;0.73;0.45;;;;;;;12.33;61.60;99062.19;5055005;28;20124;-80
2021/11/21 09:56:00;;;;;;;0.10;0.10;;;;;;;12.33;61.61;99056.06;5054946;28;20036;-80
2021/11/21 09:58:26;;;;;;;0.20;0.20;;;;;;;12.37;61.72;99057.06;5055147;28;20044;-80
2021/11/21 10:00:52;;;;;;;0.10;0.10;;;;;;;12.44;61.83;99044.09;5054888;28;20025;-79
2021/11/21 10:03:20;;;;;;;0.00;0.00;;;;;;;12.45;61.40;99042.19;5054879;28;20080;-81
2021/11/21 10:05:50;;;;;;;0.22;0.22;;;;;;;12.44;61.98;99028.00;5054966;28;20111;-80
2021/11/21 10:08:18;;;;;;;0.10;0.10;;;;;;;12.53;61.58;99028.16;5054814;28;20036;-80
2021/11/21 10:10:48;;;;;;;0.13;0.13;;;;;;;12.62;61.82;99022.94;5054998;28;20031;-80
2021/11/21 10:13:29;;;;;;;0.10;0.10;;;;;;;12.61;61.42;98999.91;5054919;28;20121;-80
2021/11/21 10:15:56;;;;;;;0.00;0.00;;;;;;;12.73;61.10;99007.50;5054674;28;20522;-81
2021/11/21 10:18:22;;;;;;;0.00;0.00;;;;;;;12.79;60.93;99006.31;5054562;28;20395;-82
2021/11/21 10:20:48;;;;;;;0.50;0.50;;;;;;;12.78;60.75;99000.16;5054502;28;20028;-79
2021/11/21 10:23:15;;;;;;;0.00;0.00;;;;;;;12.82;61.04;99001.19;5054768;28;20032;-82
2021/11/21 10:25:43;;;;;;;0.30;0.30;;;;;;;12.86;61.19;98995.22;5054760;28;20111;-81
2021/11/21 10:28:17;;;;;;;0.00;0.00;;;;;;;12.86;61.12;98973.75;5054550;28;20475;-81
2021/11/21 10:30:58;;;;;;;0.38;0.38;;;;;;;13.00;61.33;98984.53;5054678;28;20086;-80
2021/11/21 10:33:33;;;;;;;0.13;0.13;;;;;;;13.03;60.97;98976.69;5054660;28;20028;-82
2021/11/21 10:36:13;;;;;;;0.73;0.73;;;;;;;13.11;60.73;98969.88;5053929;28;20431;-80
2021/11/21 10:38:40;;;;;;;0.00;0.00;;;;;;;13.14;60.84;98966.59;5054113;28;20033;-80
2021/11/21 10:41:08;;;;;;;0.00;0.00;;;;;;;13.24;61.18;98962.94;5054225;28;20024;-82
2021/11/21 10:43:44;;;;;;;0.25;0.25;;;;;;;13.30;60.46;98951.00;5054490;28;20478;-79
2021/11/21 10:46:24;;;;;;;0.00;0.00;;;;;;;13.36;60.46;98951.72;5054224;28;20062;-81
2021/11/21 10:48:50;;;;;;;0.20;0.20;;;;;;;13.43;59.94;98944.88;5070623;28;20039;-82
2021/11/21 10:51:23;;;;;;;0.00;0.00;;;;;;;13.49;59.90;98955.53;5054410;28;20040;-82
2021/11/21 10:53:50;;;;;;;0.10;0.10;;;;;;;13.56;59.61;98948.69;5053872;28;20032;-83
2021/11/21 10:56:16;;;;;;;0.20;0.20;;;;;;;13.60;59.78;98948.88;5054206;28;20553;-82
2021/11/21 10:58:50;;;;;;;0.00;0.00;;;;;;;13.61;59.86;98937.81;5054250;28;20029;-81
2021/11/21 11:01:28;;;;;;;3.13;0.90;;;;;;;13.69;59.51;98936.31;5070656;28;20483;-81
2021/11/21 11:04:17;;;;;;;0.30;0.30;;;;;;;13.70;59.35;98921.00;5063645;28;20092;-82
2021/11/21 11:06:42;;;;;;;0.20;0.20;;;;;;;13.75;59.43;98924.38;5030849;28;20158;-82
2021/11/21 11:09:16;;;;;;;0.00;0.00;;;;;;;13.81;59.25;98924.28;5030589;28;20564;-79
2021/11/21 11:11:42;;;;;;;0.55;0.55;;;;;;;13.84;59.09;98916.44;5030846;28;20028;-82
2021/11/21 11:14:07;;;;;;;0.77;0.77;;;;;;;13.90;59.31;98915.22;5030433;28;20026;-81
2021/11/21 11:16:33;;;;;;;0.10;0.10;;;;;;;13.96;58.86;98913.19;5063928;28;20064;-81
2021/11/21 11:19:01;;;;;;;0.28;0.28;;;;;;;14.07;58.49;98913.78;5063351;28;20037;-81
2021/11/21 11:21:27;;;;;;;0.17;0.17;;;;;;;14.12;58.42;98905.59;5030481;28;20039;-81
2021/11/21 11:23:53;;;;;;;0.82;0.82;;;;;;;14.18;58.17;98898.22;5030180;28;20029;-81
2021/11/21 11:26:22;;;;;;;0.10;0.10;;;;;;;14.28;58.16;98895.31;5030290;28;20041;-80
2021/11/21 11:28:51;;;;;;;0.10;0.10;;;;;;;14.36;57.95;98899.16;5063674;28;20087;-80
2021/11/21 11:31:21;;;;;;;0.15;0.15;;;;;;;14.34;57.34;98886.03;5063415;28;20033;-80
2021/11/21 11:33:47;;;;;;;0.10;0.10;;;;;;;14.42;57.28;98881.81;5063598;28;20021;-81
2021/11/21 11:36:21;;;;;;;0.00;0.00;;;;;;;14.52;57.36;98883.47;5030018;28;20034;-81